Powhatan — WCZ5243 — position and weather

sailwx.info

Track history (hours):
 
Tides and Currents Weather Stations Pressure Air Temp Water Temp Dewpoint Dewpoint Depression Visibility Wind Speed Wind Dir Waves Ship Positions

Powhatan

Owner: SAUSE BROS., COOS BAY, OR. More information available from US FCC via Universal Licensing System and Coast Guard Vessel Documentation Center.

Last reported at 2018-Jun-20 12:58 UTC. Time now 2018-Jun-20 13:05 UTC.
Position N 37°46' W 122°23'.

Type: Towing. MMSI: 367008820.

Date/timePositionNaut miles runAvg speedWind from/ knotsBaromVisibWave heightAir tempDewpointWater temp
2018-Jun-20 12:58N 37°46' W 122°23'0 0.0
2018-Jun-20 12:28N 37°46' W 122°23'0 0.0
2018-Jun-20 11:58N 37°46' W 122°23'0 0.0
2018-Jun-20 11:25N 37°46' W 122°23'0 0.0
2018-Jun-20 10:55N 37°46' W 122°23'0 0.0
2018-Jun-20 10:25N 37°46' W 122°23'0 0.0
2018-Jun-20 09:58N 37°46' W 122°23'0 0.0
2018-Jun-20 09:31N 37°46' W 122°23'1 2.8
2018-Jun-20 09:00N 37°48' W 122°23'3 6.4
2018-Jun-20 08:31N 37°49' W 122°27'3 5.4
2018-Jun-20 08:01N 37°48' W 122°30'2 4.5
2018-Jun-20 07:31N 37°47' W 122°33'2 4.2
2018-Jun-20 07:01N 37°47' W 122°35'2 4.1
2018-Jun-20 06:30N 37°46' W 122°38'2 4.6
2018-Jun-20 06:00N 37°46' W 122°41'4 5.2
2018-Jun-20 05:18N 37°47' W 122°45'6 5.2
2018-Jun-20 04:03N 37°49' W 122°53'0 4.8
2018-Jun-20 03:58N 37°49' W 122°54'3 4.9
2018-Jun-20 03:27N 37°50' W 122°56'2 5.3
2018-Jun-20 03:00N 37°52' W 122°59'3 6.0
2018-Jun-20 02:30N 37°53' W 123°02'3 5.8
2018-Jun-20 02:00N 37°54' W 123°05'3 5.7
2018-Jun-20 01:30N 37°56' W 123°08'3 6.0
2018-Jun-20 00:56N 37°58' W 123°12'3 6.1
2018-Jun-20 00:30N 38°00' W 123°14'3 6.2
2018-Jun-20 00:00N 38°02' W 123°17'3 6.5
2018-Jun-19 23:30N 38°05' W 123°19'3 7.0
2018-Jun-19 23:00N 38°08' W 123°22'3 6.8
2018-Jun-19 22:30N 38°11' W 123°24'3 6.8
2018-Jun-19 21:59N 38°14' W 123°26'3 6.8
2018-Jun-19 21:29N 38°17' W 123°27'3 7.0
2018-Jun-19 21:00N 38°20' W 123°29'3 7.0
2018-Jun-19 20:30N 38°23' W 123°31'3 6.8
2018-Jun-19 20:00N 38°26' W 123°33'4 6.6
2018-Jun-19 19:28N 38°30' W 123°35'10 6.9
2018-Jun-19 18:03N 38°38' W 123°40'  
2018-Jun-13 12:18N 45°21' W 124°10'2 5.8
2018-Jun-13 12:00N 45°23' W 124°10'3 5.6
2018-Jun-13 11:30N 45°25' W 124°10'3 5.4
2018-Jun-13 11:00N 45°28' W 124°11'3 5.6
2018-Jun-13 10:30N 45°31' W 124°11'3 5.7
2018-Jun-13 10:00N 45°34' W 124°11'3 6.1
2018-Jun-13 09:30N 45°37' W 124°11'3 6.1
2018-Jun-13 09:00N 45°40' W 124°12'3 5.8
2018-Jun-13 08:30N 45°43' W 124°12'3 5.8
2018-Jun-13 08:00N 45°46' W 124°12'3 5.7
2018-Jun-13 07:30N 45°48' W 124°12'3 6.0
2018-Jun-13 06:59N 45°52' W 124°11'5 6.2
2018-Jun-13 06:14N 45°56' W 124°11'1 6.4
2018-Jun-13 06:00N 45°58' W 124°11'3 6.2
2018-Jun-13 05:30N 46°01' W 124°10'3 5.9
2018-Jun-13 05:00N 46°04' W 124°09'3 5.9
2018-Jun-13 04:30N 46°07' W 124°09'4 5.9
2018-Jun-13 03:48N 46°11' W 124°09'2 6.3
2018-Jun-13 03:28N 46°13' W 124°09'3 6.2
2018-Jun-13 03:01N 46°15' W 124°06'5 6.1
2018-Jun-13 02:14N 46°15' W 123°59'2 7.8
2018-Jun-13 02:00N 46°13' W 123°58'4 8.2
2018-Jun-13 01:31N 46°12' W 123°52'4 8.4
2018-Jun-13 01:00N 46°13' W 123°46'4 8.6
2018-Jun-13 00:30N 46°15' W 123°41'4 8.7
2018-Jun-13 00:01N 46°15' W 123°35'4 8.2
2018-Jun-12 23:31N 46°16' W 123°29'4 7.6
2018-Jun-12 22:59N 46°13' W 123°25'3 7.4
2018-Jun-12 22:30N 46°10' W 123°24'4 7.4
2018-Jun-12 22:00N 46°09' W 123°19'3 5.2
2018-Jun-12 21:26N 46°09' W 123°15'2 5.2
2018-Jun-12 21:00N 46°10' W 123°13'3 5.3
2018-Jun-12 20:30N 46°11' W 123°09'2 4.9
2018-Jun-12 20:00N 46°10' W 123°06'3 5.6
2018-Jun-12 19:30N 46°09' W 123°02'3 6.1
2018-Jun-12 19:00N 46°07' W 122°59'3 6.1
2018-Jun-12 18:30N 46°05' W 122°55'2 4.1
2018-Jun-12 18:00N 46°04' W 122°53'710.1
2018-Jun-12 17:19N 45°58' W 122°49'0 1.1
2018-Jun-12 17:00N 45°57' W 122°49'4 7.8
2018-Jun-12 16:30N 45°53' W 122°48'4 7.5
2018-Jun-12 16:00N 45°50' W 122°47'3 6.8
2018-Jun-12 15:30N 45°46' W 122°46'3 6.8
2018-Jun-12 15:00N 45°43' W 122°46'3 6.2
2018-Jun-12 14:30N 45°40' W 122°46'3 5.6
2018-Jun-12 14:00N 45°38' W 122°43'3 5.7
2018-Jun-12 13:30N 45°37' W 122°39'0 0.8
2018-Jun-12 13:00N 45°37' W 122°39'0 0.0
2018-Jun-12 12:30N 45°37' W 122°39'0 0.0
2018-Jun-12 11:57N 45°37' W 122°39'0 0.0
2018-Jun-12 11:21N 45°37' W 122°39'0 0.0
2018-Jun-12 10:57N 45°37' W 122°39'0 0.0
2018-Jun-12 10:30N 45°37' W 122°39'0 0.0
2018-Jun-12 09:57N 45°37' W 122°39'0 0.0
2018-Jun-12 09:24N 45°37' W 122°39'0 0.0
2018-Jun-12 08:57N 45°37' W 122°39'0 0.0
2018-Jun-12 08:27N 45°37' W 122°39'0 0.0
2018-Jun-12 07:57N 45°37' W 122°39'0 0.0
2018-Jun-12 07:27N 45°37' W 122°39'0 0.0
2018-Jun-12 06:57N 45°37' W 122°39'0 0.0
2018-Jun-12 06:30N 45°37' W 122°39'0 0.0
2018-Jun-12 05:57N 45°37' W 122°39'0 0.0
2018-Jun-12 05:21N 45°37' W 122°39'0 0.0
2018-Jun-12 04:57N 45°37' W 122°39'0 0.0
2018-Jun-12 04:30N 45°37' W 122°39'0 0.0
2018-Jun-12 04:00N 45°37' W 122°39'0 0.0
2018-Jun-12 03:12N 45°37' W 122°39'0 0.0
2018-Jun-12 02:57N 45°37' W 122°39'0 0.0
2018-Jun-12 02:27N 45°37' W 122°39'0 0.0
2018-Jun-12 01:57N 45°37' W 122°39'0 0.0
2018-Jun-12 01:27N 45°37' W 122°39'0 0.0
2018-Jun-12 00:57N 45°37' W 122°39'0 0.0
2018-Jun-12 00:24N 45°37' W 122°39'0 0.0
2018-Jun-11 23:39N 45°37' W 122°39'0 0.0
2018-Jun-11 23:24N 45°37' W 122°39'0 0.0
2018-Jun-11 22:57N 45°37' W 122°39'0 0.0
2018-Jun-11 22:27N 45°37' W 122°39'0 0.0
2018-Jun-11 21:48N 45°37' W 122°39'0 0.0
2018-Jun-11 21:30N 45°37' W 122°39'0 0.0
2018-Jun-11 20:57N 45°37' W 122°39'0 0.0
2018-Jun-11 20:18N 45°37' W 122°39'0 0.0
2018-Jun-11 20:00N 45°37' W 122°39'0 0.0
2018-Jun-11 19:27N 45°37' W 122°39'0 0.0
2018-Jun-11 19:00N 45°37' W 122°39'0 0.0
2018-Jun-11 18:30N 45°37' W 122°39'0 0.0
2018-Jun-11 17:51N 45°37' W 122°39'0 0.0
2018-Jun-11 17:27N 45°37' W 122°39'0 0.0
2018-Jun-11 16:57N 45°37' W 122°39'0 0.0
2018-Jun-11 16:26N 45°37' W 122°39'0 0.0
2018-Jun-11 15:57N 45°37' W 122°39'0 0.0
2018-Jun-11 15:27N 45°37' W 122°39'0 0.0
2018-Jun-11 14:57N 45°37' W 122°39'0 0.0
2018-Jun-11 14:27N 45°37' W 122°39'0 0.0
2018-Jun-11 13:57N 45°37' W 122°39'0 0.0
2018-Jun-11 13:26N 45°37' W 122°39'0 0.0
2018-Jun-11 12:57N 45°37' W 122°39'0 0.0
2018-Jun-11 12:27N 45°37' W 122°39'0 0.0
2018-Jun-11 11:57N 45°37' W 122°39'0 0.0
2018-Jun-11 11:27N 45°37' W 122°39'0 0.0
2018-Jun-11 11:00N 45°37' W 122°39'0 0.0
2018-Jun-11 10:27N 45°37' W 122°39'0 0.0
2018-Jun-11 09:56N 45°37' W 122°39'0 0.0
2018-Jun-11 09:15N 45°37' W 122°39'0 0.0
2018-Jun-11 08:57N 45°37' W 122°39'0 0.0
2018-Jun-11 08:29N 45°37' W 122°39'0 0.0
2018-Jun-11 08:00N 45°37' W 122°39'0 0.0
2018-Jun-11 07:27N 45°37' W 122°39'0 0.0
2018-Jun-11 06:57N 45°37' W 122°39'0 0.0
2018-Jun-11 06:27N 45°37' W 122°39'0 0.0
2018-Jun-11 05:57N 45°37' W 122°39'0 0.0
2018-Jun-11 05:27N 45°37' W 122°39'0 0.0
2018-Jun-11 04:45N 45°37' W 122°39'0 0.0
2018-Jun-11 04:27N 45°37' W 122°39'0 0.0
2018-Jun-11 03:57N 45°37' W 122°39'0 0.0
2018-Jun-11 03:26N 45°37' W 122°39'0 0.0
2018-Jun-11 02:56N 45°37' W 122°39'0 0.0
2018-Jun-11 02:27N 45°37' W 122°39'0 0.0
2018-Jun-11 01:53N 45°37' W 122°39'0 0.0
2018-Jun-11 01:29N 45°37' W 122°39'0 0.0
2018-Jun-11 00:59N 45°37' W 122°39'0 0.0
2018-Jun-11 00:05N 45°37' W 122°39'0 0.0
2018-Jun-10 23:41N 45°37' W 122°39'0 0.0
2018-Jun-10 23:29N 45°37' W 122°39'0 0.0
2018-Jun-10 22:59N 45°37' W 122°39'0 0.0
2018-Jun-10 22:29N 45°37' W 122°39'0 0.0
2018-Jun-10 19:35N 45°37' W 122°39'0 0.0
2018-Jun-10 19:29N 45°37' W 122°39'0 0.0
2018-Jun-10 18:59N 45°37' W 122°39'  
Track history (hours):
 
Tides and Currents Weather Stations Pressure Air Temp Water Temp Dewpoint Dewpoint Depression Visibility Wind Speed Wind Dir Waves Ship Positions

Powhatan

Owner: SAUSE BROS., COOS BAY, OR. More information available from US FCC via Universal Licensing System and Coast Guard Vessel Documentation Center.

Last reported at 2018-Jun-20 12:58 UTC. Time now 2018-Jun-20 13:05 UTC.
Position N 37°46' W 122°23'.

Type: Towing. MMSI: 367008820.

Date/timePositionNaut miles runAvg speedWind from/ knotsBaromVisibWave heightAir tempDewpointWater temp
2018-Jun-20 12:58N 37°46' W 122°23'0 0.0
2018-Jun-20 12:28N 37°46' W 122°23'0 0.0
2018-Jun-20 11:58N 37°46' W 122°23'0 0.0
2018-Jun-20 11:25N 37°46' W 122°23'0 0.0
2018-Jun-20 10:55N 37°46' W 122°23'0 0.0
2018-Jun-20 10:25N 37°46' W 122°23'0 0.0
2018-Jun-20 09:58N 37°46' W 122°23'0 0.0
2018-Jun-20 09:31N 37°46' W 122°23'1 2.8
2018-Jun-20 09:00N 37°48' W 122°23'3 6.4
2018-Jun-20 08:31N 37°49' W 122°27'3 5.4
2018-Jun-20 08:01N 37°48' W 122°30'2 4.5
2018-Jun-20 07:31N 37°47' W 122°33'2 4.2
2018-Jun-20 07:01N 37°47' W 122°35'2 4.1
2018-Jun-20 06:30N 37°46' W 122°38'2 4.6
2018-Jun-20 06:00N 37°46' W 122°41'4 5.2
2018-Jun-20 05:18N 37°47' W 122°45'6 5.2
2018-Jun-20 04:03N 37°49' W 122°53'0 4.8
2018-Jun-20 03:58N 37°49' W 122°54'3 4.9
2018-Jun-20 03:27N 37°50' W 122°56'2 5.3
2018-Jun-20 03:00N 37°52' W 122°59'3 6.0
2018-Jun-20 02:30N 37°53' W 123°02'3 5.8
2018-Jun-20 02:00N 37°54' W 123°05'3 5.7
2018-Jun-20 01:30N 37°56' W 123°08'3 6.0
2018-Jun-20 00:56N 37°58' W 123°12'3 6.1
2018-Jun-20 00:30N 38°00' W 123°14'3 6.2
2018-Jun-20 00:00N 38°02' W 123°17'3 6.5
2018-Jun-19 23:30N 38°05' W 123°19'3 7.0
2018-Jun-19 23:00N 38°08' W 123°22'3 6.8
2018-Jun-19 22:30N 38°11' W 123°24'3 6.8
2018-Jun-19 21:59N 38°14' W 123°26'3 6.8
2018-Jun-19 21:29N 38°17' W 123°27'3 7.0
2018-Jun-19 21:00N 38°20' W 123°29'3 7.0
2018-Jun-19 20:30N 38°23' W 123°31'3 6.8
2018-Jun-19 20:00N 38°26' W 123°33'4 6.6
2018-Jun-19 19:28N 38°30' W 123°35'10 6.9
2018-Jun-19 18:03N 38°38' W 123°40'  
2018-Jun-13 12:18N 45°21' W 124°10'2 5.8
2018-Jun-13 12:00N 45°23' W 124°10'3 5.6
2018-Jun-13 11:30N 45°25' W 124°10'3 5.4
2018-Jun-13 11:00N 45°28' W 124°11'3 5.6
2018-Jun-13 10:30N 45°31' W 124°11'3 5.7
2018-Jun-13 10:00N 45°34' W 124°11'3 6.1
2018-Jun-13 09:30N 45°37' W 124°11'3 6.1
2018-Jun-13 09:00N 45°40' W 124°12'3 5.8
2018-Jun-13 08:30N 45°43' W 124°12'3 5.8
2018-Jun-13 08:00N 45°46' W 124°12'3 5.7
2018-Jun-13 07:30N 45°48' W 124°12'3 6.0
2018-Jun-13 06:59N 45°52' W 124°11'5 6.2
2018-Jun-13 06:14N 45°56' W 124°11'1 6.4
2018-Jun-13 06:00N 45°58' W 124°11'3 6.2
2018-Jun-13 05:30N 46°01' W 124°10'3 5.9
2018-Jun-13 05:00N 46°04' W 124°09'3 5.9
2018-Jun-13 04:30N 46°07' W 124°09'4 5.9
2018-Jun-13 03:48N 46°11' W 124°09'2 6.3
2018-Jun-13 03:28N 46°13' W 124°09'3 6.2
2018-Jun-13 03:01N 46°15' W 124°06'5 6.1
2018-Jun-13 02:14N 46°15' W 123°59'2 7.8
2018-Jun-13 02:00N 46°13' W 123°58'4 8.2
2018-Jun-13 01:31N 46°12' W 123°52'4 8.4
2018-Jun-13 01:00N 46°13' W 123°46'4 8.6
2018-Jun-13 00:30N 46°15' W 123°41'4 8.7
2018-Jun-13 00:01N 46°15' W 123°35'4 8.2
2018-Jun-12 23:31N 46°16' W 123°29'4 7.6
2018-Jun-12 22:59N 46°13' W 123°25'3 7.4
2018-Jun-12 22:30N 46°10' W 123°24'4 7.4
2018-Jun-12 22:00N 46°09' W 123°19'3 5.2
2018-Jun-12 21:26N 46°09' W 123°15'2 5.2
2018-Jun-12 21:00N 46°10' W 123°13'3 5.3
2018-Jun-12 20:30N 46°11' W 123°09'2 4.9
2018-Jun-12 20:00N 46°10' W 123°06'3 5.6
2018-Jun-12 19:30N 46°09' W 123°02'3 6.1
2018-Jun-12 19:00N 46°07' W 122°59'3 6.1
2018-Jun-12 18:30N 46°05' W 122°55'2 4.1
2018-Jun-12 18:00N 46°04' W 122°53'710.1
2018-Jun-12 17:19N 45°58' W 122°49'0 1.1
2018-Jun-12 17:00N 45°57' W 122°49'4 7.8
2018-Jun-12 16:30N 45°53' W 122°48'4 7.5
2018-Jun-12 16:00N 45°50' W 122°47'3 6.8
2018-Jun-12 15:30N 45°46' W 122°46'3 6.8
2018-Jun-12 15:00N 45°43' W 122°46'3 6.2
2018-Jun-12 14:30N 45°40' W 122°46'3 5.6
2018-Jun-12 14:00N 45°38' W 122°43'3 5.7
2018-Jun-12 13:30N 45°37' W 122°39'0 0.8
2018-Jun-12 13:00N 45°37' W 122°39'0 0.0
2018-Jun-12 12:30N 45°37' W 122°39'0 0.0
2018-Jun-12 11:57N 45°37' W 122°39'0 0.0
2018-Jun-12 11:21N 45°37' W 122°39'0 0.0
2018-Jun-12 10:57N 45°37' W 122°39'0 0.0
2018-Jun-12 10:30N 45°37' W 122°39'0 0.0
2018-Jun-12 09:57N 45°37' W 122°39'0 0.0
2018-Jun-12 09:24N 45°37' W 122°39'0 0.0
2018-Jun-12 08:57N 45°37' W 122°39'0 0.0
2018-Jun-12 08:27N 45°37' W 122°39'0 0.0
2018-Jun-12 07:57N 45°37' W 122°39'0 0.0
2018-Jun-12 07:27N 45°37' W 122°39'0 0.0
2018-Jun-12 06:57N 45°37' W 122°39'0 0.0
2018-Jun-12 06:30N 45°37' W 122°39'0 0.0
2018-Jun-12 05:57N 45°37' W 122°39'0 0.0
2018-Jun-12 05:21N 45°37' W 122°39'0 0.0
2018-Jun-12 04:57N 45°37' W 122°39'0 0.0
2018-Jun-12 04:30N 45°37' W 122°39'0 0.0
2018-Jun-12 04:00N 45°37' W 122°39'0 0.0
2018-Jun-12 03:12N 45°37' W 122°39'0 0.0
2018-Jun-12 02:57N 45°37' W 122°39'0 0.0
2018-Jun-12 02:27N 45°37' W 122°39'0 0.0
2018-Jun-12 01:57N 45°37' W 122°39'0 0.0
2018-Jun-12 01:27N 45°37' W 122°39'0 0.0
2018-Jun-12 00:57N 45°37' W 122°39'0 0.0
2018-Jun-12 00:24N 45°37' W 122°39'0 0.0
2018-Jun-11 23:39N 45°37' W 122°39'0 0.0
2018-Jun-11 23:24N 45°37' W 122°39'0 0.0
2018-Jun-11 22:57N 45°37' W 122°39'0 0.0
2018-Jun-11 22:27N 45°37' W 122°39'0 0.0
2018-Jun-11 21:48N 45°37' W 122°39'0 0.0
2018-Jun-11 21:30N 45°37' W 122°39'0 0.0
2018-Jun-11 20:57N 45°37' W 122°39'0 0.0
2018-Jun-11 20:18N 45°37' W 122°39'0 0.0
2018-Jun-11 20:00N 45°37' W 122°39'0 0.0
2018-Jun-11 19:27N 45°37' W 122°39'0 0.0
2018-Jun-11 19:00N 45°37' W 122°39'0 0.0
2018-Jun-11 18:30N 45°37' W 122°39'0 0.0
2018-Jun-11 17:51N 45°37' W 122°39'0 0.0
2018-Jun-11 17:27N 45°37' W 122°39'0 0.0
2018-Jun-11 16:57N 45°37' W 122°39'0 0.0
2018-Jun-11 16:26N 45°37' W 122°39'0 0.0
2018-Jun-11 15:57N 45°37' W 122°39'0 0.0
2018-Jun-11 15:27N 45°37' W 122°39'0 0.0
2018-Jun-11 14:57N 45°37' W 122°39'0 0.0
2018-Jun-11 14:27N 45°37' W 122°39'0 0.0
2018-Jun-11 13:57N 45°37' W 122°39'0 0.0
2018-Jun-11 13:26N 45°37' W 122°39'0 0.0
2018-Jun-11 12:57N 45°37' W 122°39'0 0.0
2018-Jun-11 12:27N 45°37' W 122°39'0 0.0
2018-Jun-11 11:57N 45°37' W 122°39'0 0.0
2018-Jun-11 11:27N 45°37' W 122°39'0 0.0
2018-Jun-11 11:00N 45°37' W 122°39'0 0.0
2018-Jun-11 10:27N 45°37' W 122°39'0 0.0
2018-Jun-11 09:56N 45°37' W 122°39'0 0.0
2018-Jun-11 09:15N 45°37' W 122°39'0 0.0
2018-Jun-11 08:57N 45°37' W 122°39'0 0.0
2018-Jun-11 08:29N 45°37' W 122°39'0 0.0
2018-Jun-11 08:00N 45°37' W 122°39'0 0.0
2018-Jun-11 07:27N 45°37' W 122°39'0 0.0
2018-Jun-11 06:57N 45°37' W 122°39'0 0.0
2018-Jun-11 06:27N 45°37' W 122°39'0 0.0
2018-Jun-11 05:57N 45°37' W 122°39'0 0.0
2018-Jun-11 05:27N 45°37' W 122°39'0 0.0
2018-Jun-11 04:45N 45°37' W 122°39'0 0.0
2018-Jun-11 04:27N 45°37' W 122°39'0 0.0
2018-Jun-11 03:57N 45°37' W 122°39'0 0.0
2018-Jun-11 03:26N 45°37' W 122°39'0 0.0
2018-Jun-11 02:56N 45°37' W 122°39'0 0.0
2018-Jun-11 02:27N 45°37' W 122°39'0 0.0
2018-Jun-11 01:53N 45°37' W 122°39'0 0.0
2018-Jun-11 01:29N 45°37' W 122°39'0 0.0
2018-Jun-11 00:59N 45°37' W 122°39'0 0.0
2018-Jun-11 00:05N 45°37' W 122°39'0 0.0
2018-Jun-10 23:41N 45°37' W 122°39'0 0.0
2018-Jun-10 23:29N 45°37' W 122°39'0 0.0
2018-Jun-10 22:59N 45°37' W 122°39'0 0.0
2018-Jun-10 22:29N 45°37' W 122°39'0 0.0
2018-Jun-10 19:35N 45°37' W 122°39'0 0.0
2018-Jun-10 19:29N 45°37' W 122°39'0 0.0
2018-Jun-10 18:59N 45°37' W 122°39'  

Dump ship's entire track history